Time;durP1;ratioP1;P1;durP2;ratioP2;P2;SDS_P1;SDS_P2;PMS_P1;PMS_P2;Temp;Humidity;BMP_temperature;BMP_pressure;BME280_temperature;BME280_humidity;BME280_pressure;Samples;Min_cycle;Max_cycle;Signal;HPM_P1;HPM_P2
2023/10/05 00:01:05;;;;;;;11.68;4.78;;;12.60;99.90;;;;;;4784526;29;20516;-77
2023/10/05 00:03:30;;;;;;;12.15;4.75;;;12.60;99.90;;;;;;4815321;29;20048;-77
2023/10/05 00:06:05;;;;;;;11.25;3.95;;;12.60;99.90;;;;;;4816266;29;20510;-77
2023/10/05 00:08:35;;;;;;;12.65;4.43;;;12.60;99.90;;;;;;4791125;29;20410;-77
2023/10/05 00:11:01;;;;;;;13.88;4.93;;;12.60;99.90;;;;;;4807016;29;20050;-77
2023/10/05 00:13:26;;;;;;;14.32;4.57;;;12.60;99.90;;;;;;4799427;29;20519;-77
2023/10/05 00:15:53;;;;;;;12.52;4.72;;;12.60;99.90;;;;;;4802098;29;20053;-77
2023/10/05 00:18:20;;;;;;;13.65;4.80;;;12.60;99.90;;;;;;4791504;29;20057;-77
2023/10/05 00:20:48;;;;;;;13.88;4.80;;;12.60;99.90;;;;;;4806543;29;20417;-77
2023/10/05 00:23:14;;;;;;;11.00;4.72;;;12.60;99.90;;;;;;4806056;29;20038;-77
2023/10/05 00:25:39;;;;;;;17.02;5.82;;;12.60;99.90;;;;;;4790691;29;20094;-77
2023/10/05 00:28:09;;;;;;;18.63;5.60;;;12.60;99.90;;;;;;4799209;29;20053;-77
2023/10/05 00:30:35;;;;;;;14.80;4.97;;;12.60;99.90;;;;;;4793517;29;20050;-78
2023/10/05 00:33:04;;;;;;;13.73;4.70;;;12.60;99.90;;;;;;4808232;29;20065;-77
2023/10/05 00:35:33;;;;;;;14.27;4.88;;;12.60;99.90;;;;;;4790036;29;20044;-77
2023/10/05 00:38:12;;;;;;;11.18;4.57;;;12.60;99.90;;;;;;4806251;29;20152;-77
2023/10/05 00:40:43;;;;;;;13.73;5.03;;;12.70;99.90;;;;;;4793557;29;20030;-77
2023/10/05 00:43:46;;;;;;;14.98;5.13;;;12.70;99.90;;;;;;4803934;29;20038;-77
2023/10/05 00:46:00;;;;;;;9.63;4.43;;;12.70;99.90;;;;;;4829274;29;20047;-78
2023/10/05 00:48:34;;;;;;;14.45;5.10;;;12.70;99.90;;;;;;4809918;29;20054;-77
2023/10/05 00:51:04;;;;;;;14.38;5.38;;;12.80;99.90;;;;;;4798933;29;20470;-77
2023/10/05 00:53:30;;;;;;;13.32;4.22;;;12.80;99.90;;;;;;4805379;29;20502;-78
2023/10/05 00:56:08;;;;;;;11.00;4.55;;;12.80;99.90;;;;;;4814941;29;20078;-78
2023/10/05 00:58:42;;;;;;;15.45;4.85;;;12.80;99.90;;;;;;4804172;29;20067;-77
2023/10/05 01:01:14;;;;;;;11.65;4.60;;;12.80;99.90;;;;;;4820853;29;20047;-77
2023/10/05 01:04:12;;;;;;;;;;;12.80;99.90;;;;;;4794056;29;20042;-77
2023/10/05 01:06:41;;;;;;;14.43;4.55;;;12.80;99.90;;;;;;4818583;29;19927;-77
2023/10/05 01:12:16;;;;;;;15.68;4.95;;;12.90;99.90;;;;;;4821668;29;20054;-77
2023/10/05 01:14:46;;;;;;;13.13;3.97;;;13.00;99.90;;;;;;4813614;29;20046;-77
2023/10/05 01:17:12;;;;;;;9.40;4.07;;;13.00;99.90;;;;;;4818797;29;20058;-77
2023/10/05 01:19:39;;;;;;;11.63;4.70;;;13.00;99.90;;;;;;4806826;29;20141;-77
2023/10/05 01:22:11;;;;;;;12.07;4.55;;;13.00;99.90;;;;;;4808071;29;20063;-77
2023/10/05 01:24:37;;;;;;;10.38;4.50;;;13.00;99.90;;;;;;4794116;29;20043;-77
2023/10/05 01:27:03;;;;;;;11.23;4.40;;;13.00;99.90;;;;;;4822182;29;20046;-77
2023/10/05 01:29:29;;;;;;;9.75;4.18;;;13.00;99.90;;;;;;4811330;29;20043;-77
2023/10/05 01:31:57;;;;;;;10.52;4.15;;;13.00;99.90;;;;;;4808335;29;20121;-77
2023/10/05 01:34:24;;;;;;;11.45;4.22;;;13.00;99.90;;;;;;4808941;29;20047;-77
2023/10/05 01:36:49;;;;;;;13.88;4.70;;;13.00;99.90;;;;;;4797370;29;20034;-77
2023/10/05 01:39:18;;;;;;;10.57;4.30;;;13.00;99.90;;;;;;4804649;29;20050;-78
2023/10/05 01:41:46;;;;;;;9.70;3.80;;;12.90;99.90;;;;;;4794357;29;20077;-77
2023/10/05 01:44:13;;;;;;;11.95;3.70;;;12.90;99.90;;;;;;4808882;29;20046;-77
2023/10/05 01:46:39;;;;;;;11.93;4.47;;;12.90;99.90;;;;;;4794940;29;20049;-77
2023/10/05 01:49:04;;;;;;;11.43;4.35;;;12.90;99.90;;;;;;4813528;29;20409;-77
2023/10/05 01:51:30;;;;;;;12.18;4.85;;;12.90;99.90;;;;;;4793262;29;20062;-77
2023/10/05 01:53:59;;;;;;;13.68;4.53;;;12.90;99.90;;;;;;4808759;29;20049;-77
2023/10/05 01:56:25;;;;;;;12.32;4.35;;;12.80;99.90;;;;;;4807683;29;20061;-77
2023/10/05 01:58:52;;;;;;;10.52;4.35;;;12.80;99.90;;;;;;4816463;29;20050;-77
2023/10/05 02:01:21;;;;;;;12.48;4.60;;;12.80;99.90;;;;;;4805224;29;20038;-77
2023/10/05 02:03:54;;;;;;;14.52;4.93;;;12.80;99.90;;;;;;4812013;29;20042;-77
2023/10/05 02:06:20;;;;;;;13.90;4.80;;;12.80;99.90;;;;;;4807028;29;20050;-77
2023/10/05 02:08:45;;;;;;;13.43;4.93;;;12.80;99.90;;;;;;4811920;29;20520;-77
2023/10/05 02:11:23;;;;;;;14.48;4.47;;;12.70;99.90;;;;;;4811591;29;20098;-77
2023/10/05 02:13:49;;;;;;;14.13;4.65;;;12.70;99.90;;;;;;4826693;29;20057;-77
2023/10/05 02:16:17;;;;;;;12.82;5.22;;;12.70;99.90;;;;;;4803348;29;20043;-77
2023/10/05 02:18:44;;;;;;;12.32;4.78;;;12.70;99.90;;;;;;4796169;29;20045;-77
2023/10/05 02:22:02;;;;;;;11.80;4.50;;;12.70;99.90;;;;;;4797174;29;20098;-77
2023/10/05 02:24:16;;;;;;;14.80;5.57;;;12.70;99.90;;;;;;4830041;29;20493;-77
2023/10/05 02:29:28;;;;;;;12.82;5.05;;;12.70;99.90;;;;;;4809896;29;20054;-77
2023/10/05 02:34:23;;;;;;;10.18;4.32;;;12.60;99.90;;;;;;4811400;29;20069;-77
2023/10/05 02:36:54;;;;;;;15.75;6.15;;;12.60;99.90;;;;;;4795676;29;20501;-77
2023/10/05 02:39:21;;;;;;;14.02;5.10;;;12.60;99.90;;;;;;4818564;29;20062;-77
2023/10/05 02:41:50;;;;;;;13.90;4.82;;;12.60;99.90;;;;;;4826285;29;20045;-77
2023/10/05 02:44:28;;;;;;;12.05;4.85;;;12.60;99.90;;;;;;4826475;29;20160;-77
2023/10/05 02:46:54;;;;;;;15.13;5.43;;;12.60;99.90;;;;;;4813471;29;20414;-77
2023/10/05 02:49:22;;;;;;;19.92;6.10;;;12.60;99.90;;;;;;4808450;29;20052;-77
2023/10/05 02:51:49;;;;;;;12.45;5.07;;;12.60;99.90;;;;;;4826354;29;20409;-77
2023/10/05 02:54:15;;;;;;;13.35;5.22;;;12.50;99.90;;;;;;4825921;29;20128;-77
2023/10/05 02:56:40;;;;;;;15.77;5.85;;;12.50;99.90;;;;;;4804526;29;20554;-77
2023/10/05 02:59:15;;;;;;;13.80;5.40;;;12.50;99.90;;;;;;4820233;29;20050;-77
2023/10/05 03:01:44;;;;;;;16.30;6.00;;;12.50;99.90;;;;;;4816851;29;20038;-77
2023/10/05 03:04:16;;;;;;;16.48;6.82;;;12.50;99.90;;;;;;4807559;29;20153;-77
2023/10/05 03:06:43;;;;;;;18.35;7.35;;;12.50;99.90;;;;;;4806081;29;20041;-77
2023/10/05 03:09:09;;;;;;;19.95;6.63;;;12.50;99.90;;;;;;4784689;29;20046;-77
2023/10/05 03:11:40;;;;;;;17.35;6.80;;;12.50;99.90;;;;;;4807813;29;20038;-77
2023/10/05 03:14:06;;;;;;;20.17;6.30;;;12.50;99.90;;;;;;4792393;29;20051;-77
2023/10/05 03:16:43;;;;;;;17.13;5.70;;;12.50;99.90;;;;;;4804259;29;20050;-77
2023/10/05 03:19:12;;;;;;;16.67;6.30;;;12.50;99.90;;;;;;4807859;29;20571;-77
2023/10/05 03:21:37;;;;;;;16.75;6.90;;;12.50;99.90;;;;;;4792291;29;20042;-77
2023/10/05 03:24:03;;;;;;;16.40;7.30;;;12.50;99.90;;;;;;4792390;29;20048;-77
2023/10/05 03:26:29;;;;;;;17.73;7.47;;;12.50;99.90;;;;;;4807001;29;20042;-77
2023/10/05 03:28:54;;;;;;;14.63;6.57;;;12.60;99.90;;;;;;4819580;29;20488;-77
2023/10/05 03:31:30;;;;;;;21.02;7.22;;;12.60;99.90;;;;;;4801199;29;20066;-77
2023/10/05 03:33:56;;;;;;;16.15;7.35;;;12.60;99.90;;;;;;4822403;29;20129;-77
2023/10/05 03:36:22;;;;;;;15.20;6.25;;;12.70;99.90;;;;;;4822305;29;20053;-77
2023/10/05 03:38:55;;;;;;;13.52;6.45;;;12.70;99.90;;;;;;4833582;29;20046;-77
2023/10/05 03:41:25;;;;;;;16.48;7.63;;;12.70;99.90;;;;;;4794660;29;20047;-77
2023/10/05 03:43:52;;;;;;;15.00;6.80;;;12.70;99.90;;;;;;4791097;29;20085;-77
2023/10/05 03:46:17;;;;;;;17.40;7.20;;;12.70;99.90;;;;;;4783725;29;20061;-77
2023/10/05 03:48:44;;;;;;;13.23;5.35;;;12.70;99.90;;;;;;4818262;29;20485;-77
2023/10/05 03:51:15;;;;;;;17.75;7.55;;;12.70;99.90;;;;;;4810869;29;20046;-77
2023/10/05 03:53:48;;;;;;;19.13;7.47;;;12.70;99.90;;;;;;4792028;29;20083;-77
2023/10/05 03:56:17;;;;;;;18.83;8.02;;;12.60;99.90;;;;;;4790194;29;20065;-78
2023/10/05 03:58:43;;;;;;;21.17;7.72;;;12.60;99.90;;;;;;4808043;29;20041;-78
2023/10/05 04:01:11;;;;;;;16.20;7.45;;;12.60;99.90;;;;;;4809678;29;20065;-78
2023/10/05 04:03:38;;;;;;;18.60;6.65;;;12.60;99.90;;;;;;4809653;29;20041;-78
2023/10/05 04:06:16;;;;;;;15.98;6.68;;;12.60;99.90;;;;;;4805943;29;20050;-78
2023/10/05 04:08:50;;;;;;;19.33;7.05;;;12.60;99.90;;;;;;4803940;29;20094;-78
2023/10/05 04:11:21;;;;;;;15.05;6.47;;;12.60;99.90;;;;;;4816637;29;20060;-78
2023/10/05 04:13:49;;;;;;;19.88;6.45;;;12.50;99.90;;;;;;4800495;29;20506;-78
2023/10/05 04:16:18;;;;;;;17.45;7.20;;;12.50;99.90;;;;;;4790406;29;20087;-77
2023/10/05 04:18:46;;;;;;;13.25;6.80;;;12.50;99.90;;;;;;4798130;29;20038;-78
2023/10/05 04:21:15;;;;;;;19.92;7.15;;;12.50;99.90;;;;;;4806055;29;20042;-78
2023/10/05 04:23:42;;;;;;;14.57;6.13;;;12.50;99.90;;;;;;4806451;29;20042;-78
2023/10/05 04:26:09;;;;;;;13.88;6.40;;;12.50;99.90;;;;;;4805164;29;20053;-78
2023/10/05 04:28:35;;;;;;;16.85;6.57;;;12.40;99.90;;;;;;4792649;29;20046;-78
2023/10/05 04:31:02;;;;;;;16.55;6.72;;;12.40;99.90;;;;;;4819468;29;20136;-78
2023/10/05 04:33:29;;;;;;;13.43;6.07;;;12.40;99.90;;;;;;4822306;29;20049;-77
2023/10/05 04:35:55;;;;;;;12.82;5.75;;;12.40;99.90;;;;;;4822479;29;20056;-78
2023/10/05 04:38:24;;;;;;;21.05;6.70;;;12.40;99.90;;;;;;4806320;29;20473;-78
2023/10/05 04:40:56;;;;;;;16.15;7.00;;;12.30;99.90;;;;;;4799971;29;20053;-78
2023/10/05 04:43:22;;;;;;;17.30;6.93;;;12.30;99.90;;;;;;4813815;29;20083;-78
2023/10/05 04:45:48;;;;;;;20.60;7.20;;;12.30;99.90;;;;;;4790706;29;20050;-78
2023/10/05 04:48:13;;;;;;;18.50;7.20;;;12.30;99.90;;;;;;4806298;29;20494;-78
2023/10/05 04:50:42;;;;;;;15.80;6.57;;;12.30;99.90;;;;;;4790951;29;20133;-78
2023/10/05 04:53:13;;;;;;;13.98;6.63;;;12.20;99.90;;;;;;4819863;29;20429;-78
2023/10/05 04:55:42;;;;;;;16.65;6.40;;;12.30;99.90;;;;;;4795355;29;20046;-78
2023/10/05 04:58:20;;;;;;;16.30;6.93;;;12.30;99.90;;;;;;4783738;29;20043;-78
2023/10/05 05:08:34;;;;;;;19.85;7.93;;;12.30;99.90;;;;;;4807053;29;20054;-78
2023/10/05 05:11:00;;;;;;;19.48;7.75;;;12.40;99.90;;;;;;4790328;29;20039;-78
2023/10/05 05:13:28;;;;;;;21.35;8.23;;;12.40;99.90;;;;;;4805705;29;20511;-77
2023/10/05 05:15:54;;;;;;;16.90;7.50;;;12.40;99.90;;;;;;4793099;29;20061;-78
2023/10/05 05:18:21;;;;;;;19.33;6.40;;;12.40;99.90;;;;;;4794063;29;20082;-77
2023/10/05 05:20:47;;;;;;;19.35;6.60;;;12.40;99.90;;;;;;4805694;29;20046;-79
2023/10/05 05:23:13;;;;;;;16.55;6.13;;;12.50;99.90;;;;;;4790730;29;20134;-80
2023/10/05 05:25:39;;;;;;;16.42;6.45;;;12.50;99.90;;;;;;4820494;29;20061;-79
2023/10/05 05:28:05;;;;;;;16.38;6.57;;;12.50;99.90;;;;;;4792877;29;20046;-78
2023/10/05 05:30:32;;;;;;;16.63;6.43;;;12.50;99.90;;;;;;4808743;29;20046;-79
2023/10/05 05:32:58;;;;;;;17.42;6.53;;;12.50;99.90;;;;;;4810117;29;20053;-79
2023/10/05 05:35:24;;;;;;;14.93;6.45;;;12.50;99.90;;;;;;4798407;29;20062;-78
2023/10/05 05:37:50;;;;;;;18.77;6.25;;;12.50;99.90;;;;;;4796208;29;20046;-78
2023/10/05 05:40:15;;;;;;;19.08;6.82;;;12.50;99.90;;;;;;4804350;29;20035;-78
2023/10/05 05:42:44;;;;;;;21.30;7.07;;;12.60;99.90;;;;;;4827536;29;20171;-78
2023/10/05 05:45:15;;;;;;;13.70;5.68;;;12.60;99.90;;;;;;4806312;29;20121;-78
2023/10/05 05:47:45;;;;;;;18.20;6.95;;;12.60;99.90;;;;;;4815375;29;20048;-78
2023/10/05 05:50:17;;;;;;;18.27;6.97;;;12.60;99.90;;;;;;4816282;29;20054;-77
2023/10/05 05:52:47;;;;;;;17.20;6.50;;;12.60;99.90;;;;;;4800466;29;20117;-77
2023/10/05 05:55:13;;;;;;;18.00;6.20;;;12.70;99.90;;;;;;4815504;29;20182;-77
2023/10/05 05:57:40;;;;;;;14.38;5.95;;;12.70;99.90;;;;;;4826531;29;20046;-77
2023/10/05 06:00:13;;;;;;;17.25;5.40;;;12.70;99.90;;;;;;4822740;29;20041;-78
2023/10/05 06:02:43;;;;;;;13.95;5.80;;;12.70;99.90;;;;;;4810877;29;20042;-78
2023/10/05 06:05:09;;;;;;;15.10;6.28;;;12.80;99.90;;;;;;4819820;29;20133;-77
2023/10/05 06:07:40;;;;;;;17.02;6.65;;;12.70;99.90;;;;;;4818982;29;20509;-77
2023/10/05 06:10:12;;;;;;;16.50;6.13;;;12.80;99.90;;;;;;4819862;29;20046;-77
2023/10/05 06:12:51;;;;;;;12.63;5.10;;;12.80;99.90;;;;;;4811141;29;20056;-77
2023/10/05 06:15:16;;;;;;;17.00;6.47;;;12.80;99.90;;;;;;4809039;29;20129;-78
2023/10/05 06:17:46;;;;;;;15.73;6.15;;;12.90;99.90;;;;;;4809751;29;20102;-78
2023/10/05 06:20:15;;;;;;;18.52;6.43;;;12.90;99.90;;;;;;4790882;29;20502;-78
2023/10/05 06:22:45;;;;;;;14.32;5.53;;;12.90;99.90;;;;;;4799504;29;20046;-78
2023/10/05 06:25:15;;;;;;;16.20;6.38;;;13.00;99.90;;;;;;4814574;29;20049;-77
2023/10/05 06:27:43;;;;;;;12.52;5.93;;;13.00;99.90;;;;;;4820207;29;20164;-77
2023/10/05 06:30:10;;;;;;;13.63;5.95;;;13.10;99.90;;;;;;4826383;29;20054;-77
2023/10/05 06:32:36;;;;;;;17.20;6.18;;;13.10;99.90;;;;;;4826308;29;20050;-78
2023/10/05 06:35:08;;;;;;;18.05;6.15;;;13.10;99.90;;;;;;4810999;29;20398;-78
2023/10/05 06:37:35;;;;;;;11.52;5.05;;;13.10;99.90;;;;;;4805891;29;20042;-78
2023/10/05 06:40:00;;;;;;;19.40;6.38;;;13.20;99.90;;;;;;4811483;29;20145;-77
2023/10/05 06:42:26;;;;;;;14.68;6.10;;;13.20;99.90;;;;;;4826046;29;20124;-77
2023/10/05 06:44:52;;;;;;;16.17;5.80;;;13.20;99.90;;;;;;4825160;29;20124;-78
2023/10/05 06:50:09;;;;;;;17.17;6.45;;;13.20;99.90;;;;;;4826097;29;20098;-77
2023/10/05 06:52:36;;;;;;;12.00;5.68;;;13.30;99.90;;;;;;4811104;29;20053;-77
2023/10/05 06:55:07;;;;;;;15.85;6.25;;;13.30;99.90;;;;;;4826088;29;20061;-78
2023/10/05 06:57:39;;;;;;;17.83;6.25;;;13.40;99.90;;;;;;4819905;29;20532;-77
2023/10/05 07:00:16;;;;;;;19.05;5.65;;;13.40;99.90;;;;;;4810804;29;20077;-77
2023/10/05 07:02:45;;;;;;;14.80;5.97;;;13.50;99.90;;;;;;4825916;29;20078;-78
2023/10/05 07:05:11;;;;;;;17.30;6.10;;;13.50;99.90;;;;;;4810813;29;20042;-77
2023/10/05 07:07:37;;;;;;;12.65;5.20;;;13.60;99.90;;;;;;4819522;29;20058;-78
2023/10/05 07:10:04;;;;;;;13.95;6.00;;;13.60;99.90;;;;;;4820606;29;20404;-78
2023/10/05 07:12:31;;;;;;;14.63;5.82;;;13.60;99.90;;;;;;4825733;29;20081;-78
2023/10/05 07:14:57;;;;;;;17.75;6.10;;;13.70;99.90;;;;;;4825520;29;20092;-78
2023/10/05 07:17:25;;;;;;;15.10;6.20;;;13.70;99.90;;;;;;4820533;29;20490;-78
2023/10/05 07:19:51;;;;;;;13.80;5.88;;;13.70;99.90;;;;;;4825797;29;20057;-78
2023/10/05 07:22:17;;;;;;;13.68;5.80;;;13.70;99.90;;;;;;4825690;29;20102;-78
2023/10/05 07:24:43;;;;;;;16.27;6.05;;;13.80;99.90;;;;;;4817437;29;20084;-78
2023/10/05 07:27:09;;;;;;;15.35;5.65;;;13.80;99.90;;;;;;4801710;29;20069;-78
2023/10/05 07:29:34;;;;;;;13.30;5.32;;;13.80;99.90;;;;;;4810620;29;20455;-78
2023/10/05 07:32:01;;;;;;;14.60;5.28;;;13.90;99.90;;;;;;4822443;29;20050;-78
2023/10/05 07:34:27;;;;;;;12.80;5.53;;;13.90;99.90;;;;;;4825312;29;20049;-78
2023/10/05 07:36:54;;;;;;;13.32;5.70;;;13.90;99.90;;;;;;4825330;29;20053;-77
2023/10/05 07:39:23;;;;;;;16.25;5.68;;;14.00;99.90;;;;;;4805276;29;20085;-78
2023/10/05 07:41:49;;;;;;;14.15;5.97;;;14.00;99.90;;;;;;4825300;29;20050;-78
2023/10/05 07:44:15;;;;;;;13.48;5.07;;;14.00;99.90;;;;;;4825103;29;20034;-78
2023/10/05 07:46:43;;;;;;;12.73;5.38;;;14.10;99.90;;;;;;4825095;29;20053;-78
2023/10/05 07:49:09;;;;;;;15.48;6.55;;;14.10;99.90;;;;;;4820770;29;20049;-77
2023/10/05 07:51:35;;;;;;;12.23;5.53;;;14.20;99.90;;;;;;4820295;29;20146;-78
2023/10/05 07:54:00;;;;;;;16.17;6.00;;;14.30;99.90;;;;;;4825202;29;20114;-77
2023/10/05 07:56:26;;;;;;;17.50;5.95;;;14.40;99.90;;;;;;4824668;29;20048;-77
2023/10/05 07:58:51;;;;;;;15.02;5.90;;;14.40;99.90;;;;;;4820845;29;20065;-77
2023/10/05 08:01:18;;;;;;;13.85;6.30;;;14.50;99.90;;;;;;4809632;29;20050;-77
2023/10/05 08:03:45;;;;;;;12.15;5.82;;;14.50;99.90;;;;;;4809869;29;20489;-77
2023/10/05 08:06:14;;;;;;;12.65;5.78;;;14.60;99.90;;;;;;4825152;29;20081;-77
2023/10/05 08:08:41;;;;;;;13.48;5.90;;;14.60;99.90;;;;;;4805689;29;20042;-77
2023/10/05 08:11:07;;;;;;;13.52;5.60;;;14.70;99.90;;;;;;4821870;29;20046;-78
2023/10/05 08:13:33;;;;;;;14.30;6.22;;;14.70;99.90;;;;;;4825028;29;20058;-77
2023/10/05 08:15:58;;;;;;;17.73;5.57;;;14.80;99.90;;;;;;4824616;29;20136;-78
2023/10/05 08:18:25;;;;;;;14.15;5.05;;;14.80;99.90;;;;;;4821314;29;20048;-77
2023/10/05 08:20:51;;;;;;;14.00;5.82;;;14.80;99.90;;;;;;4824971;29;20038;-78
2023/10/05 08:23:16;;;;;;;12.38;5.25;;;14.80;99.90;;;;;;4824786;29;20520;-78
2023/10/05 08:25:42;;;;;;;15.57;5.65;;;14.90;99.90;;;;;;4824664;29;20038;-78
2023/10/05 08:28:10;;;;;;;13.13;5.63;;;14.90;99.90;;;;;;4805757;29;20046;-77
2023/10/05 08:30:45;;;;;;;14.73;5.88;;;14.90;99.90;;;;;;4824564;29;20128;-77
2023/10/05 08:33:15;;;;;;;14.50;5.55;;;14.90;99.90;;;;;;4824649;29;20050;-77
2023/10/05 08:35:41;;;;;;;13.30;5.93;;;15.00;99.90;;;;;;4816170;29;20042;-77
2023/10/05 08:38:15;;;;;;;12.45;5.07;;;15.00;99.90;;;;;;4824729;29;20102;-77
2023/10/05 08:40:43;;;;;;;10.98;5.20;;;15.00;99.90;;;;;;4824775;29;20049;-78
2023/10/05 08:43:09;;;;;;;13.07;5.97;;;14.90;99.90;;;;;;4824437;29;20046;-78
2023/10/05 08:45:46;;;;;;;16.30;6.60;;;14.90;99.90;;;;;;4816270;29;20048;-78
2023/10/05 08:48:29;;;;;;;12.88;6.15;;;14.90;99.90;;;;;;4809928;29;20102;-78
2023/10/05 08:50:58;;;;;;;;;;;14.90;99.90;;;;;;4799925;29;20125;-78
2023/10/05 08:53:24;;;;;;;16.17;6.80;;;14.90;99.90;;;;;;4805572;29;19925;-78
2023/10/05 08:55:54;;;;;;;16.77;7.20;;;15.00;99.90;;;;;;4802718;29;20058;-78
2023/10/05 08:58:21;;;;;;;14.32;6.57;;;15.10;99.90;;;;;;4824395;29;20053;-78
2023/10/05 09:00:48;;;;;;;16.73;7.53;;;15.20;99.90;;;;;;4824718;29;20401;-77
2023/10/05 09:03:29;;;;;;;16.88;6.40;;;15.30;99.90;;;;;;4824473;29;20057;-78
2023/10/05 09:06:13;;;;;;;15.02;6.22;;;15.50;99.90;;;;;;4812773;29;20046;-78
2023/10/05 09:08:53;;;;;;;15.60;6.60;;;15.60;99.90;;;;;;4827719;29;20054;-77
2023/10/05 09:11:21;;;;;;;14.68;6.22;;;15.80;99.90;;;;;;4813123;29;20109;-77
2023/10/05 09:13:47;;;;;;;14.90;6.55;;;15.90;99.90;;;;;;4823756;29;20107;-77
2023/10/05 09:16:22;;;;;;;14.05;6.28;;;16.00;99.90;;;;;;4817437;29;20054;-78
2023/10/05 09:18:48;;;;;;;12.32;5.63;;;16.20;99.90;;;;;;4791577;29;20047;-77
2023/10/05 09:21:18;;;;;;;15.63;5.28;;;16.40;99.90;;;;;;4776633;29;20130;-78
2023/10/05 09:23:44;;;;;;;12.40;5.50;;;16.40;99.90;;;;;;4778878;29;20110;-77
2023/10/05 09:26:33;;;;;;;13.93;5.47;;;16.50;99.90;;;;;;4808229;29;20053;-77
2023/10/05 09:29:21;;;;;;;13.98;5.55;;;16.60;99.90;;;;;;4791372;29;20179;-78
2023/10/05 09:31:51;;;;;;;14.23;5.38;;;16.70;99.90;;;;;;4791466;29;20061;-78
2023/10/05 09:34:49;;;;;;;12.48;5.47;;;16.80;99.90;;;;;;4796586;29;20118;-77
2023/10/05 09:37:16;;;;;;;14.95;4.88;;;16.80;99.90;;;;;;4799702;29;20085;-78
2023/10/05 09:39:49;;;;;;;12.52;5.25;;;16.90;99.90;;;;;;4804829;29;20042;-77
2023/10/05 09:42:25;;;;;;;14.20;4.60;;;16.90;99.90;;;;;;4827607;29;20052;-77
2023/10/05 09:44:59;;;;;;;14.38;5.15;;;16.90;99.90;;;;;;4820348;29;20046;-77
2023/10/05 09:47:33;;;;;;;12.27;4.68;;;16.90;99.90;;;;;;4812010;29;20045;-77
2023/10/05 09:50:00;;;;;;;10.93;5.10;;;16.90;99.90;;;;;;4820669;29;20053;-77
2023/10/05 09:52:36;;;;;;;14.70;4.72;;;16.90;99.90;;;;;;4803501;29;20137;-77
2023/10/05 09:55:06;;;;;;;14.82;4.72;;;16.80;99.90;;;;;;4826702;29;20049;-77
2023/10/05 20:40:34;;;;;;;16.35;9.90;;;13.10;99.90;;;;;;5696103;23;20050;-77
2023/10/05 20:43:00;;;;;;;13.23;8.52;;;13.00;99.90;;;;;;4827589;29;20710;-77
2023/10/05 20:45:26;;;;;;;15.45;9.65;;;13.10;99.90;;;;;;4832342;29;20042;-77
2023/10/05 20:47:52;;;;;;;14.60;9.32;;;13.10;99.90;;;;;;4806371;29;20088;-77
2023/10/05 20:50:18;;;;;;;17.95;9.23;;;13.10;99.90;;;;;;4813006;29;20042;-77
2023/10/05 20:52:43;;;;;;;14.35;8.60;;;13.10;99.90;;;;;;4828045;29;20408;-77
2023/10/05 20:55:09;;;;;;;12.25;8.65;;;13.10;99.90;;;;;;4834552;29;20049;-75
2023/10/05 20:57:35;;;;;;;17.38;9.23;;;13.20;99.90;;;;;;4826445;29;20050;-76
2023/10/05 21:00:00;;;;;;;14.30;8.80;;;13.20;99.90;;;;;;4810454;29;20612;-76
2023/10/05 21:02:26;;;;;;;13.25;8.45;;;13.20;99.90;;;;;;4809997;29;20528;-77
2023/10/05 21:04:52;;;;;;;14.93;7.88;;;13.20;99.90;;;;;;4835631;29;20045;-76
2023/10/05 21:07:17;;;;;;;15.68;8.35;;;13.30;99.90;;;;;;4828280;29;20046;-76
2023/10/05 21:09:43;;;;;;;13.45;8.30;;;13.20;99.90;;;;;;4830534;29;20041;-75
2023/10/05 21:12:09;;;;;;;14.00;8.27;;;13.30;99.90;;;;;;4812818;29;20129;-75
2023/10/05 21:14:34;;;;;;;13.65;7.93;;;13.30;99.90;;;;;;4827973;29;20074;-75
2023/10/05 21:17:00;;;;;;;13.13;6.57;;;13.30;99.90;;;;;;4834423;29;20185;-75
2023/10/05 21:19:25;;;;;;;15.95;7.68;;;13.30;99.90;;;;;;4807951;29;20129;-75
2023/10/05 21:21:51;;;;;;;13.90;7.55;;;13.30;99.90;;;;;;4818904;29;20515;-75
2023/10/05 21:24:17;;;;;;;15.32;7.43;;;13.30;99.90;;;;;;4812702;29;20541;-75
2023/10/05 21:26:42;;;;;;;13.07;6.90;;;13.30;99.90;;;;;;4812404;29;20042;-75
2023/10/05 21:29:08;;;;;;;11.73;6.90;;;13.20;99.90;;;;;;4822120;29;20073;-75
2023/10/05 21:31:34;;;;;;;11.93;6.60;;;13.20;99.90;;;;;;4821426;29;20048;-75
2023/10/05 21:34:00;;;;;;;11.30;6.50;;;13.20;99.90;;;;;;4842961;29;20121;-75
2023/10/05 21:36:26;;;;;;;12.52;6.75;;;13.20;99.90;;;;;;4842601;29;20061;-75
2023/10/05 21:38:52;;;;;;;10.80;5.82;;;13.20;99.90;;;;;;4833615;29;20037;-75
2023/10/05 21:41:20;;;;;;;12.55;6.35;;;13.20;99.90;;;;;;4828904;29;20450;-75
2023/10/05 21:43:46;;;;;;;10.85;6.22;;;13.20;99.90;;;;;;4837420;29;20053;-75
2023/10/05 21:46:12;;;;;;;11.90;6.03;;;13.10;99.90;;;;;;4837942;29;20037;-75
2023/10/05 21:48:37;;;;;;;13.52;7.28;;;13.10;99.90;;;;;;4845660;29;20093;-75
2023/10/05 21:51:03;;;;;;;10.55;6.00;;;13.00;99.90;;;;;;4834497;29;20496;-75
2023/10/05 21:53:29;;;;;;;13.30;6.32;;;13.00;99.90;;;;;;4833468;29;20042;-75
2023/10/05 21:55:54;;;;;;;11.43;6.15;;;12.90;99.90;;;;;;4828291;29;20394;-78
2023/10/05 21:58:20;;;;;;;11.70;6.10;;;12.90;99.90;;;;;;4820880;29;20497;-78
2023/10/05 22:00:52;;;;;;;14.98;6.82;;;12.90;99.90;;;;;;4825493;29;20689;-77
2023/10/05 22:03:19;;;;;;;11.85;6.55;;;12.90;99.90;;;;;;4832507;29;20042;-77
2023/10/05 22:05:46;;;;;;;13.85;6.20;;;12.90;99.90;;;;;;4822966;29;20370;-78
2023/10/05 22:08:15;;;;;;;11.10;6.43;;;12.90;99.90;;;;;;4808470;29;20413;-78
2023/10/05 22:10:43;;;;;;;11.40;5.50;;;12.90;99.90;;;;;;4835511;29;20046;-77
2023/10/05 22:13:10;;;;;;;16.25;7.05;;;12.90;99.90;;;;;;4836751;29;20041;-77
2023/10/05 22:15:37;;;;;;;12.05;6.40;;;12.90;99.90;;;;;;4812151;29;20069;-78
2023/10/05 22:18:05;;;;;;;12.13;7.00;;;12.90;99.90;;;;;;4836198;29;20492;-78
2023/10/05 22:20:31;;;;;;;10.55;6.63;;;12.90;99.90;;;;;;4830775;29;20562;-77
2023/10/05 22:22:57;;;;;;;10.13;6.13;;;12.90;99.90;;;;;;4828024;29;20054;-77
2023/10/05 22:25:24;;;;;;;12.57;6.00;;;12.90;99.90;;;;;;4827241;29;20049;-77
2023/10/05 22:27:50;;;;;;;11.15;6.00;;;12.90;99.90;;;;;;4828871;29;20132;-77
2023/10/05 22:30:15;;;;;;;11.20;6.45;;;12.90;99.90;;;;;;4830390;29;20053;-77
2023/10/05 22:32:41;;;;;;;13.00;6.45;;;12.90;99.90;;;;;;4836296;29;20121;-77
2023/10/05 22:35:07;;;;;;;9.13;6.15;;;12.90;99.90;;;;;;4835308;29;20075;-77
2023/10/05 22:37:33;;;;;;;10.48;6.47;;;12.90;99.90;;;;;;4845341;29;20041;-77
2023/10/05 22:39:58;;;;;;;14.50;7.07;;;12.80;99.90;;;;;;4828253;29;20062;-77
2023/10/05 22:42:24;;;;;;;9.80;6.72;;;12.80;99.90;;;;;;4827516;29;20436;-77
2023/10/05 22:44:49;;;;;;;11.43;7.40;;;12.80;99.90;;;;;;4828948;29;20397;-77
2023/10/05 22:47:15;;;;;;;10.57;7.00;;;12.70;99.90;;;;;;4807780;29;20129;-77
2023/10/05 22:49:40;;;;;;;11.52;6.78;;;12.70;99.90;;;;;;4827478;29;20454;-77
2023/10/05 22:52:06;;;;;;;13.25;7.70;;;12.70;99.90;;;;;;4827936;29;20054;-77
2023/10/05 22:54:31;;;;;;;15.13;7.90;;;12.70;99.90;;;;;;4820913;29;20129;-78
2023/10/05 22:56:57;;;;;;;13.00;7.72;;;12.70;99.90;;;;;;4810711;29;20053;-78
2023/10/05 22:59:23;;;;;;;13.95;6.60;;;12.70;99.90;;;;;;4818258;29;20044;-78
2023/10/05 23:01:50;;;;;;;11.88;6.70;;;12.70;99.90;;;;;;4844337;29;20037;-77
2023/10/05 23:04:15;;;;;;;13.77;7.22;;;12.80;99.90;;;;;;4847946;29;20523;-77
2023/10/05 23:06:42;;;;;;;15.48;7.57;;;12.80;99.90;;;;;;4835255;29;20038;-77
2023/10/05 23:09:13;;;;;;;11.63;6.80;;;12.80;99.90;;;;;;4845449;29;20041;-77
2023/10/05 23:11:39;;;;;;;13.57;7.43;;;12.80;99.90;;;;;;4824130;29;20189;-77
2023/10/05 23:14:13;;;;;;;15.57;7.60;;;12.90;99.90;;;;;;4801979;29;20046;-78
2023/10/05 23:16:39;;;;;;;13.55;7.35;;;12.90;99.90;;;;;;4829593;29;20054;-77
2023/10/05 23:19:09;;;;;;;14.30;7.40;;;12.90;99.90;;;;;;4829581;29;20048;-77
2023/10/05 23:21:40;;;;;;;12.45;6.80;;;13.00;99.90;;;;;;4813518;29;20081;-78
2023/10/05 23:24:12;;;;;;;15.93;7.35;;;12.90;99.90;;;;;;4828373;29;20086;-78
2023/10/05 23:26:44;;;;;;;15.48;8.40;;;13.00;99.90;;;;;;4812334;29;20053;-78
2023/10/05 23:29:19;;;;;;;12.20;8.00;;;13.00;99.90;;;;;;4828341;29;20056;-77
2023/10/05 23:31:45;;;;;;;13.85;7.28;;;13.00;99.90;;;;;;4811864;29;20045;-77
2023/10/05 23:34:17;;;;;;;10.40;6.90;;;13.00;99.90;;;;;;4828452;29;20046;-78
2023/10/05 23:36:44;;;;;;;15.65;7.45;;;13.00;99.90;;;;;;4812763;29;20449;-77
2023/10/05 23:39:14;;;;;;;10.18;6.82;;;13.00;99.90;;;;;;4827798;29;20038;-78
2023/10/05 23:41:40;;;;;;;17.67;7.78;;;13.00;99.90;;;;;;4835804;29;20045;-77
2023/10/05 23:44:09;;;;;;;14.27;7.13;;;13.00;99.90;;;;;;4817353;29;20140;-78
2023/10/05 23:46:41;;;;;;;15.40;8.30;;;13.00;99.90;;;;;;4828112;29;20658;-78